createdAt,value
2022-12-08T00:01:27.307Z,1.73
2022-12-08T00:03:55.438Z,2.50
2022-12-08T00:06:48.837Z,2.15
2022-12-08T00:09:25.877Z,3.37
2022-12-08T00:11:59.349Z,1.35
2022-12-08T00:14:32.131Z,2.15
2022-12-08T00:17:00.233Z,3.65
2022-12-08T00:19:27.558Z,1.80
2022-12-08T00:21:54.959Z,3.13
2022-12-08T00:24:25.435Z,2.70
2022-12-08T00:26:51.885Z,2.95
2022-12-08T00:29:18.895Z,1.30
2022-12-08T00:31:45.464Z,6.53
2022-12-08T00:34:13.871Z,1.63
2022-12-08T00:36:40.792Z,2.50
2022-12-08T00:39:07.353Z,5.15
2022-12-08T00:41:52.636Z,2.97
2022-12-08T00:44:19.733Z,4.22
2022-12-08T00:46:49.432Z,1.93
2022-12-08T00:49:16.986Z,2.08
2022-12-08T00:51:43.959Z,3.03
2022-12-08T00:54:11.638Z,11.52
2022-12-08T00:56:38.462Z,7.63
2022-12-08T00:59:06.742Z,6.40
2022-12-08T01:01:34.213Z,16.55
2022-12-08T01:04:07.660Z,23.42
2022-12-08T01:06:38.496Z,13.35
2022-12-08T01:09:07.217Z,14.10
2022-12-08T01:11:34.682Z,4.27
2022-12-08T01:14:01.519Z,11.05
2022-12-08T01:16:31.247Z,16.02
2022-12-08T01:18:59.249Z,19.63
2022-12-08T01:21:26.362Z,9.18
2022-12-08T01:23:52.812Z,5.33
2022-12-08T01:26:19.840Z,16.67
2022-12-08T01:28:47.115Z,15.20
2022-12-08T01:31:16.813Z,11.05
2022-12-08T01:33:44.058Z,5.68
2022-12-08T01:36:21.457Z,8.17
2022-12-08T01:38:48.060Z,4.85
2022-12-08T01:41:17.175Z,6.35
2022-12-08T01:43:57.505Z,4.35
2022-12-08T01:46:25.622Z,3.30
2022-12-08T01:48:56.951Z,3.60
2022-12-08T01:51:23.855Z,3.58
2022-12-08T01:53:50.834Z,2.30
2022-12-08T01:56:26.286Z,3.17
2022-12-08T01:58:55.702Z,2.53
2022-12-08T02:01:22.391Z,2.77
2022-12-08T02:03:59.042Z,2.00
2022-12-08T02:06:28.876Z,2.10
2022-12-08T02:08:56.651Z,2.35
2022-12-08T02:11:23.279Z,4.85
2022-12-08T02:13:52.341Z,2.10
2022-12-08T02:16:31.427Z,9.88
2022-12-08T02:19:35.067Z,5.25
2022-12-08T02:22:06.986Z,6.28
2022-12-08T02:25:07.278Z,9.05
2022-12-08T02:27:41.517Z,24.33
2022-12-08T02:30:35.995Z,39.25
2022-12-08T02:33:44.198Z,16.48
2022-12-08T02:36:20.569Z,69.15
2022-12-08T02:39:12.213Z,18.52
2022-12-08T02:41:46.749Z,6.63
2022-12-08T02:44:35.491Z,23.85
2022-12-08T02:47:16.632Z,21.08
2022-12-08T02:49:43.427Z,22.92
2022-12-08T02:52:12.618Z,30.40
2022-12-08T02:54:44.003Z,10.37
2022-12-08T02:57:30.766Z,8.93
2022-12-08T03:00:14.093Z,6.47
2022-12-08T03:02:56.630Z,5.53
2022-12-08T03:05:31.876Z,7.13
2022-12-08T03:08:15.051Z,5.60
2022-12-08T03:10:52.451Z,6.20
2022-12-08T03:13:23.540Z,4.47
2022-12-08T03:15:52.931Z,6.20
2022-12-08T03:18:27.668Z,3.20
2022-12-08T03:20:54.777Z,2.70
2022-12-08T03:23:23.177Z,3.88
2022-12-08T03:25:58.432Z,2.17
2022-12-08T03:28:25.481Z,2.08
2022-12-08T03:30:56.567Z,2.72
2022-12-08T03:33:35.643Z,1.73
2022-12-08T03:36:05.057Z,4.15
2022-12-08T03:38:43.710Z,2.53
2022-12-08T03:41:20.207Z,2.80
2022-12-08T03:43:55.464Z,1.88
2022-12-08T03:48:50.262Z,1.33
2022-12-08T03:51:17.408Z,2.85
2022-12-08T03:53:44.252Z,1.63
2022-12-08T03:56:30.709Z,1.98
2022-12-08T03:58:57.813Z,1.13
2022-12-08T04:01:25.197Z,3.00
2022-12-08T04:03:52.427Z,1.90
2022-12-08T04:06:20.338Z,2.20
2022-12-08T04:08:47.616Z,1.25
2022-12-08T04:11:14.366Z,1.20
2022-12-08T04:13:42.329Z,1.25
2022-12-08T04:16:13.979Z,0.70
2022-12-08T04:18:40.531Z,2.85
2022-12-08T04:21:07.162Z,0.60
2022-12-08T04:23:33.825Z,4.17
2022-12-08T04:26:00.761Z,2.17
2022-12-08T04:28:29.602Z,2.72
2022-12-08T04:30:56.339Z,1.70
2022-12-08T04:33:23.341Z,4.00
2022-12-08T04:35:50.307Z,0.63
2022-12-08T04:38:17.507Z,3.13
2022-12-08T04:40:44.213Z,2.38
2022-12-08T04:43:10.963Z,1.13
2022-12-08T04:45:40.227Z,1.63
2022-12-08T04:48:06.843Z,1.00
2022-12-08T04:50:33.488Z,1.30
2022-12-08T04:53:00.169Z,0.75
2022-12-08T04:55:26.820Z,0.40
2022-12-08T04:57:53.366Z,4.72
2022-12-08T05:00:20.014Z,2.90
2022-12-08T05:02:46.570Z,1.20
2022-12-08T05:05:13.183Z,0.90
2022-12-08T05:07:39.847Z,4.07
2022-12-08T05:10:07.429Z,2.45
2022-12-08T05:12:34.340Z,0.90
2022-12-08T05:15:00.888Z,1.10
2022-12-08T05:17:27.445Z,1.45
2022-12-08T05:19:54.115Z,2.88
2022-12-08T05:22:20.605Z,1.20
2022-12-08T05:24:47.803Z,1.90
2022-12-08T05:27:14.984Z,0.60
2022-12-08T05:29:41.856Z,0.75
2022-12-08T05:32:08.546Z,1.55
2022-12-08T05:34:35.198Z,0.47
2022-12-08T05:37:01.820Z,0.80
2022-12-08T05:39:28.649Z,1.67
2022-12-08T05:41:55.220Z,2.25
2022-12-08T05:44:21.751Z,1.60
2022-12-08T05:46:48.557Z,1.70
2022-12-08T05:49:15.127Z,1.80
2022-12-08T05:51:41.698Z,3.22
2022-12-08T05:54:08.426Z,2.13
2022-12-08T05:56:35.025Z,1.95
2022-12-08T05:59:01.853Z,1.02
2022-12-08T06:01:30.952Z,0.50
2022-12-08T06:03:59.993Z,1.15
2022-12-08T06:06:27.546Z,2.13
2022-12-08T06:08:54.183Z,1.70
2022-12-08T06:11:24.183Z,0.70
2022-12-08T06:13:51.452Z,3.00
2022-12-08T06:16:18.888Z,0.80
2022-12-08T06:18:45.889Z,0.85
2022-12-08T06:21:14.695Z,1.42
2022-12-08T06:23:41.452Z,1.23
2022-12-08T06:26:12.072Z,0.67
2022-12-08T06:28:40.494Z,0.50
2022-12-08T06:31:17.044Z,1.48
2022-12-08T06:33:43.955Z,0.90
2022-12-08T06:36:12.774Z,1.05
2022-12-08T06:38:43.280Z,0.97
2022-12-08T06:41:11.608Z,0.88
2022-12-08T06:43:39.220Z,1.08
2022-12-08T06:46:08.861Z,1.63
2022-12-08T06:48:35.669Z,0.75
2022-12-08T06:51:14.525Z,0.90
2022-12-08T06:53:41.775Z,2.15
2022-12-08T06:56:09.755Z,1.48
2022-12-08T06:58:36.466Z,2.03
2022-12-08T07:01:12.803Z,0.80
2022-12-08T07:03:40.266Z,0.40
2022-12-08T07:06:07.107Z,0.30
2022-12-08T07:08:35.010Z,0.80
2022-12-08T07:11:08.068Z,0.70
2022-12-08T07:13:34.865Z,1.95
2022-12-08T07:16:01.604Z,0.60
2022-12-08T07:18:28.199Z,3.03
2022-12-08T07:20:54.651Z,0.93
2022-12-08T07:23:21.225Z,1.20
2022-12-08T07:25:47.762Z,2.15
2022-12-08T07:28:14.476Z,0.90
2022-12-08T07:30:41.133Z,3.30
2022-12-08T07:33:07.687Z,1.23
2022-12-08T07:35:35.358Z,0.95
2022-12-08T07:38:02.812Z,1.05
2022-12-08T07:40:32.224Z,1.10
2022-12-08T07:42:58.914Z,1.00
2022-12-08T07:45:31.237Z,2.20
2022-12-08T07:47:58.454Z,1.75
2022-12-08T07:50:24.969Z,1.30
2022-12-08T07:52:51.565Z,2.13
2022-12-08T07:55:18.121Z,1.15
2022-12-08T07:57:44.704Z,1.13
2022-12-08T08:00:11.944Z,2.08
2022-12-08T08:02:38.867Z,0.90
2022-12-08T08:05:06.464Z,0.90
2022-12-08T08:07:33.231Z,0.90
2022-12-08T08:09:59.956Z,1.52
2022-12-08T08:12:31.833Z,1.85
2022-12-08T08:15:00.881Z,2.10
2022-12-08T08:17:28.563Z,0.87
2022-12-08T08:19:55.452Z,1.00
2022-12-08T08:22:22.437Z,1.35
2022-12-08T08:24:49.008Z,2.00
2022-12-08T08:27:15.554Z,1.27
2022-12-08T08:29:42.155Z,0.80
2022-12-08T08:32:09.043Z,2.03
2022-12-08T08:34:35.748Z,0.90
2022-12-08T08:37:02.605Z,0.80
2022-12-08T08:39:30.279Z,1.60
2022-12-08T08:41:57.078Z,0.80
2022-12-08T08:44:23.989Z,3.38
2022-12-08T08:46:50.841Z,2.15
2022-12-08T08:49:18.629Z,1.15
2022-12-08T08:51:45.265Z,0.88
2022-12-08T08:54:12.220Z,0.50
2022-12-08T08:56:38.771Z,1.27
2022-12-08T08:59:05.558Z,1.58
2022-12-08T09:01:32.528Z,0.80
2022-12-08T09:03:59.644Z,0.70
2022-12-08T09:09:21.520Z,0.63
2022-12-08T09:11:48.914Z,0.60
2022-12-08T09:14:16.039Z,0.82
2022-12-08T09:16:43.297Z,0.80
2022-12-08T09:19:10.166Z,3.67
2022-12-08T09:21:37.055Z,0.98
2022-12-08T09:24:04.172Z,0.60
2022-12-08T09:26:31.060Z,1.25
2022-12-08T09:28:58.320Z,1.02
2022-12-08T09:31:25.599Z,0.80
2022-12-08T09:33:52.452Z,0.65
2022-12-08T09:36:20.028Z,0.70
2022-12-08T09:38:46.851Z,0.50
2022-12-08T09:41:39.276Z,2.45
2022-12-08T09:44:30.187Z,0.90
2022-12-08T09:46:58.957Z,0.80
2022-12-08T09:49:39.902Z,1.25
2022-12-08T09:52:19.032Z,0.40
2022-12-08T09:54:45.873Z,0.80
2022-12-08T09:57:17.147Z,0.50
2022-12-08T09:59:48.040Z,0.65
2022-12-08T10:02:25.374Z,2.13
2022-12-08T10:04:55.405Z,1.30
2022-12-08T10:07:31.104Z,0.63
2022-12-08T10:10:26.451Z,1.40
2022-12-08T10:12:59.342Z,2.22
2022-12-08T10:15:41.007Z,0.40
2022-12-08T10:18:15.664Z,3.95
2022-12-08T10:20:45.476Z,0.93
2022-12-08T10:23:38.877Z,1.13
2022-12-08T10:26:12.488Z,0.65
2022-12-08T10:28:44.785Z,1.58
2022-12-08T10:31:20.974Z,1.27
2022-12-08T10:33:57.591Z,1.08
2022-12-08T10:36:45.071Z,1.43
2022-12-08T10:39:34.104Z,1.08
2022-12-08T10:42:03.208Z,1.35
2022-12-08T10:44:30.163Z,0.50
2022-12-08T10:46:56.916Z,1.25
2022-12-08T10:49:29.411Z,2.20
2022-12-08T10:51:56.130Z,6.25
2022-12-08T10:54:36.020Z,0.82
2022-12-08T10:57:02.735Z,1.05
2022-12-08T10:59:29.621Z,1.20
2022-12-08T11:01:57.239Z,0.53
2022-12-08T11:04:34.784Z,0.35
2022-12-08T11:07:02.965Z,0.50
2022-12-08T11:09:48.849Z,0.60
2022-12-08T11:12:20.640Z,0.57
2022-12-08T11:14:54.654Z,0.43
2022-12-08T11:17:27.748Z,0.68
2022-12-08T11:20:04.134Z,0.45
2022-12-08T11:22:34.419Z,0.63
2022-12-08T11:25:11.031Z,2.35
2022-12-08T11:27:44.401Z,0.70
2022-12-08T11:30:15.668Z,0.70
2022-12-08T11:32:44.966Z,1.00
2022-12-08T11:35:40.094Z,1.40
2022-12-08T11:38:21.508Z,1.48
2022-12-08T11:40:52.457Z,0.57
2022-12-08T11:43:26.458Z,0.60
2022-12-08T11:46:00.181Z,1.17
2022-12-08T11:48:33.707Z,1.75
2022-12-08T11:58:16.824Z,1.60
2022-12-08T12:00:43.564Z,2.90
2022-12-08T12:03:36.252Z,2.22
2022-12-08T12:06:38.092Z,1.92
2022-12-08T12:09:14.810Z,3.00
2022-12-08T12:12:19.338Z,2.53
2022-12-08T12:15:04.727Z,3.28
2022-12-08T12:17:49.843Z,1.77
2022-12-08T12:20:28.604Z,1.08
2022-12-08T12:23:06.018Z,4.17
2022-12-08T12:25:34.853Z,6.78
2022-12-08T12:28:05.896Z,5.40
2022-12-08T12:30:58.595Z,2.97
2022-12-08T12:33:25.953Z,2.08
2022-12-08T12:35:57.464Z,2.83
2022-12-08T12:38:54.113Z,1.30
2022-12-08T12:41:29.566Z,0.80
2022-12-08T12:44:14.665Z,2.65
2022-12-08T12:46:48.626Z,0.70
2022-12-08T12:49:40.420Z,0.60
2022-12-08T12:52:09.999Z,0.65
2022-12-08T12:54:36.594Z,1.45
2022-12-08T12:57:09.483Z,1.02
2022-12-08T12:59:56.372Z,1.33
2022-12-08T13:02:24.963Z,0.70
2022-12-08T13:05:00.753Z,0.95
2022-12-08T13:07:35.950Z,0.70
2022-12-08T13:10:04.980Z,1.98
2022-12-08T13:12:32.254Z,1.20
2022-12-08T13:15:05.283Z,0.53
2022-12-08T13:17:37.672Z,0.65
2022-12-08T13:20:07.529Z,1.13
2022-12-08T13:22:57.601Z,0.85
2022-12-08T13:25:46.561Z,0.60
2022-12-08T13:28:15.898Z,2.10
2022-12-08T13:30:50.610Z,0.52
2022-12-08T13:33:22.080Z,0.80
2022-12-08T13:36:03.323Z,0.63
2022-12-08T13:38:34.106Z,1.80
2022-12-08T13:41:03.612Z,0.53
2022-12-08T13:44:31.163Z,0.50
2022-12-08T13:58:17.953Z,0.63
2022-12-08T14:00:57.101Z,1.08
2022-12-08T14:03:23.895Z,0.85
2022-12-08T14:06:17.933Z,1.50
2022-12-08T14:11:36.119Z,0.90
2022-12-08T14:14:06.718Z,3.67
2022-12-08T14:16:38.388Z,1.00
2022-12-08T14:19:21.755Z,1.38
2022-12-08T14:21:54.008Z,1.33
2022-12-08T14:24:22.247Z,0.73
2022-12-08T14:26:54.834Z,1.45
2022-12-08T14:29:36.708Z,0.80
2022-12-08T14:32:04.750Z,1.60
2022-12-08T14:34:40.414Z,1.00
2022-12-08T14:37:12.712Z,1.42
2022-12-08T14:39:40.907Z,2.63
2022-12-08T14:42:07.785Z,1.92
2022-12-08T14:44:39.077Z,1.08
2022-12-08T14:47:08.120Z,14.00
2022-12-08T14:49:37.039Z,2.25
2022-12-08T14:52:11.234Z,2.38
2022-12-08T14:54:40.221Z,2.00
2022-12-08T14:57:08.087Z,1.92
2022-12-08T14:59:38.036Z,3.23
2022-12-08T15:02:10.661Z,1.65
2022-12-08T15:04:44.186Z,3.25
2022-12-08T15:07:14.182Z,3.33
2022-12-08T15:09:45.197Z,2.38
2022-12-08T15:12:15.040Z,1.30
2022-12-08T15:14:56.875Z,5.90
2022-12-08T15:17:29.021Z,3.35
2022-12-08T15:19:57.413Z,1.42
2022-12-08T15:22:24.669Z,1.88
2022-12-08T15:24:51.437Z,1.20
2022-12-08T15:27:20.817Z,1.98
2022-12-08T15:29:48.646Z,2.38
2022-12-08T15:32:21.228Z,3.38
2022-12-08T15:34:48.247Z,1.60
2022-12-08T15:37:22.416Z,3.37
2022-12-08T15:39:49.668Z,1.50
2022-12-08T15:42:16.800Z,2.25
2022-12-08T15:44:44.448Z,2.30
2022-12-08T15:47:22.105Z,3.30
2022-12-08T15:49:50.486Z,3.63
2022-12-08T15:52:19.939Z,5.63
2022-12-08T15:54:46.656Z,2.40
2022-12-08T15:58:04.084Z,2.70
2022-12-08T16:09:11.978Z,2.63
2022-12-08T16:12:07.657Z,3.50
2022-12-08T16:17:21.831Z,2.70
2022-12-08T16:19:48.574Z,2.47
2022-12-08T16:25:18.189Z,2.55
2022-12-08T16:28:17.432Z,2.67
2022-12-08T16:30:33.624Z,2.37
2022-12-08T16:33:00.467Z,5.10
2022-12-08T16:35:27.284Z,3.50
2022-12-08T16:37:53.975Z,2.08
2022-12-08T16:40:21.194Z,3.83
2022-12-08T16:42:48.568Z,3.30
2022-12-08T16:45:18.385Z,2.03
2022-12-08T16:47:49.093Z,2.10
2022-12-08T16:50:21.144Z,2.00
2022-12-08T16:52:49.115Z,10.02
2022-12-08T16:55:18.215Z,2.97
2022-12-08T16:57:46.245Z,2.33
2022-12-08T17:00:16.494Z,3.90
2022-12-08T17:02:43.541Z,2.22
2022-12-08T17:05:13.789Z,2.53
2022-12-08T17:07:42.902Z,2.80
2022-12-08T17:10:11.511Z,3.78
2022-12-08T17:12:38.619Z,2.97
2022-12-08T17:15:08.292Z,3.33
2022-12-08T17:17:35.853Z,2.20
2022-12-08T17:20:08.488Z,2.73
2022-12-08T17:22:35.750Z,2.20
2022-12-08T17:25:02.982Z,2.22
2022-12-08T17:27:30.045Z,2.47
2022-12-08T17:29:57.537Z,4.82
2022-12-08T17:32:24.571Z,2.87
2022-12-08T17:34:51.355Z,4.22
2022-12-08T17:37:18.288Z,3.25
2022-12-08T17:39:45.323Z,2.75
2022-12-08T17:42:12.093Z,5.07
2022-12-08T17:44:39.216Z,2.60
2022-12-08T17:47:05.868Z,2.22
2022-12-08T17:49:33.982Z,3.33
2022-12-08T17:52:04.140Z,3.33
2022-12-08T17:54:31.398Z,3.38
2022-12-08T17:56:58.922Z,2.67
2022-12-08T17:59:27.579Z,3.85
2022-12-08T18:01:55.538Z,2.63
2022-12-08T18:04:22.562Z,3.78
2022-12-08T18:06:49.439Z,2.50
2022-12-08T18:09:16.179Z,2.90
2022-12-08T18:11:44.164Z,3.33
2022-12-08T18:14:11.933Z,2.65
2022-12-08T18:16:42.210Z,3.15
2022-12-08T18:19:10.403Z,4.03
2022-12-08T18:21:37.595Z,3.73
2022-12-08T18:24:05.189Z,5.20
2022-12-08T18:26:31.996Z,3.25
2022-12-08T18:28:58.676Z,4.45
2022-12-08T18:31:25.618Z,4.60
2022-12-08T18:33:53.553Z,7.30
2022-12-08T18:36:23.466Z,5.53
2022-12-08T18:38:51.655Z,5.63
2022-12-08T18:41:23.652Z,5.80
2022-12-08T18:43:50.783Z,4.35
2022-12-08T18:46:17.412Z,4.90
2022-12-08T18:48:47.261Z,6.80
2022-12-08T18:51:20.001Z,6.25
2022-12-08T18:53:47.415Z,5.93
2022-12-08T18:56:26.068Z,5.15
2022-12-08T18:58:59.834Z,5.80
2022-12-08T19:01:30.139Z,5.40
2022-12-08T19:04:26.845Z,5.60
2022-12-08T19:06:46.214Z,6.68
2022-12-08T19:09:13.083Z,7.20
2022-12-08T19:11:40.083Z,7.87
2022-12-08T19:14:07.563Z,6.97
2022-12-08T19:16:34.379Z,6.57
2022-12-08T19:19:01.094Z,6.13
2022-12-08T19:21:28.552Z,5.20
2022-12-08T19:23:58.438Z,8.40
2022-12-08T19:26:27.872Z,7.25
2022-12-08T19:28:54.603Z,8.40
2022-12-08T19:31:21.348Z,6.70
2022-12-08T19:33:48.090Z,9.38
2022-12-08T19:36:20.877Z,6.77
2022-12-08T19:39:06.238Z,6.15
2022-12-08T19:41:51.870Z,7.38
2022-12-08T19:44:43.624Z,6.80
2022-12-08T19:47:10.345Z,8.40
2022-12-08T19:49:37.396Z,9.03
2022-12-08T19:52:05.059Z,7.05
2022-12-08T19:54:32.295Z,7.60
2022-12-08T19:56:58.830Z,8.95
2022-12-08T19:59:26.572Z,6.90
2022-12-08T20:01:55.926Z,13.67
2022-12-08T20:04:24.148Z,8.32
2022-12-08T20:06:52.243Z,10.40
2022-12-08T20:09:19.535Z,11.43
2022-12-08T20:11:46.387Z,10.93
2022-12-08T20:14:13.145Z,11.37
2022-12-08T20:16:41.816Z,11.25
2022-12-08T20:19:09.454Z,12.43
2022-12-08T20:21:36.105Z,13.95
2022-12-08T20:24:04.552Z,15.88
2022-12-08T20:26:31.238Z,11.97
2022-12-08T20:28:57.726Z,12.32
2022-12-08T20:31:27.298Z,14.15
2022-12-08T20:33:54.338Z,12.60
2022-12-08T20:36:22.077Z,10.45
2022-12-08T20:38:50.195Z,11.30
2022-12-08T20:41:17.810Z,15.10
2022-12-08T20:43:45.974Z,18.67
2022-12-08T20:46:15.187Z,13.82
2022-12-08T20:48:42.904Z,14.13
2022-12-08T20:51:13.471Z,15.30
2022-12-08T20:53:40.477Z,13.88
2022-12-08T20:56:07.432Z,17.80
2022-12-08T20:58:34.161Z,18.92
2022-12-08T21:01:01.207Z,15.95
2022-12-08T21:03:28.056Z,14.27
2022-12-08T21:05:54.927Z,15.93
2022-12-08T21:08:24.979Z,17.33
2022-12-08T21:10:55.749Z,17.45
2022-12-08T21:13:22.712Z,13.52
2022-12-08T21:15:49.955Z,13.63
2022-12-08T21:18:17.357Z,17.13
2022-12-08T21:20:44.609Z,13.65
2022-12-08T21:23:13.267Z,16.30
2022-12-08T21:25:42.314Z,13.27
2022-12-08T21:28:10.248Z,16.03
2022-12-08T21:30:39.843Z,17.63
2022-12-08T21:33:06.655Z,15.98
2022-12-08T21:35:33.502Z,14.63
2022-12-08T21:38:00.597Z,15.82
2022-12-08T21:40:27.384Z,17.63
2022-12-08T21:42:54.230Z,17.25
2022-12-08T21:45:22.071Z,18.73
2022-12-08T21:47:49.692Z,20.30
2022-12-08T21:50:17.719Z,15.80
2022-12-08T21:52:46.944Z,16.33
2022-12-08T21:55:15.358Z,17.55
2022-12-08T21:57:42.824Z,15.10
2022-12-08T22:00:15.459Z,15.05
2022-12-08T22:02:42.571Z,17.67
2022-12-08T22:05:10.024Z,18.80
2022-12-08T22:07:39.953Z,17.77
2022-12-08T22:10:08.721Z,23.00
2022-12-08T22:12:37.510Z,19.23
2022-12-08T22:15:06.554Z,18.10
2022-12-08T22:17:37.569Z,16.97
2022-12-08T22:20:07.848Z,16.67
2022-12-08T22:22:35.376Z,18.75
2022-12-08T22:25:03.638Z,16.13
2022-12-08T22:27:30.486Z,16.85
2022-12-08T22:29:57.136Z,15.97
2022-12-08T22:32:24.034Z,17.35
2022-12-08T22:34:51.014Z,14.60
2022-12-08T22:37:17.827Z,21.58
2022-12-08T22:39:44.406Z,21.67
2022-12-08T22:42:11.234Z,21.23
2022-12-08T22:44:37.851Z,15.02
2022-12-08T22:47:04.998Z,15.63
2022-12-08T22:49:31.768Z,16.50
2022-12-08T22:51:58.955Z,16.85
2022-12-08T22:54:25.825Z,16.47
2022-12-08T22:56:52.353Z,17.95
2022-12-08T22:59:18.870Z,22.48
2022-12-08T23:01:45.467Z,24.25
2022-12-08T23:04:17.352Z,22.40
2022-12-08T23:06:44.206Z,22.90
2022-12-08T23:09:11.313Z,28.15
2022-12-08T23:11:38.118Z,20.60
2022-12-08T23:14:04.862Z,19.20
2022-12-08T23:16:32.020Z,23.75
2022-12-08T23:18:59.157Z,23.20
2022-12-08T23:21:26.005Z,26.70
2022-12-08T23:23:52.601Z,31.63
2022-12-08T23:26:23.842Z,22.85
2022-12-08T23:28:51.304Z,25.02
2022-12-08T23:31:18.917Z,26.90
2022-12-08T23:33:46.156Z,24.63
2022-12-08T23:36:13.787Z,23.55
2022-12-08T23:38:40.453Z,24.58
2022-12-08T23:41:09.060Z,24.67
2022-12-08T23:43:36.517Z,24.83
2022-12-08T23:46:04.649Z,23.40
2022-12-08T23:48:34.957Z,23.13
2022-12-08T23:51:01.998Z,28.08
2022-12-08T23:53:33.171Z,28.13
2022-12-08T23:56:01.858Z,23.50
2022-12-08T23:58:30.881Z,26.77
